createdAt,value
2022-12-20T00:02:21.205Z,-0.33
2022-12-20T00:07:22.971Z,-0.40
2022-12-20T00:12:24.665Z,-0.40
2022-12-20T00:17:26.722Z,-0.34
2022-12-20T00:22:28.339Z,-0.40
2022-12-20T00:27:30.025Z,-0.38
2022-12-20T00:32:31.844Z,-0.34
2022-12-20T00:37:33.846Z,-0.40
2022-12-20T00:42:35.609Z,-0.40
2022-12-20T00:47:37.223Z,-0.50
2022-12-20T00:52:38.839Z,-0.45
2022-12-20T00:57:40.489Z,-0.40
2022-12-20T01:02:42.279Z,-0.36
2022-12-20T01:07:44.020Z,-0.38
2022-12-20T01:12:45.999Z,-0.32
2022-12-20T01:17:47.813Z,-0.45
2022-12-20T01:22:49.441Z,-0.45
2022-12-20T01:27:51.080Z,-0.44
2022-12-20T01:32:52.969Z,-0.49
2022-12-20T01:37:54.574Z,-0.51
2022-12-20T01:42:56.239Z,-0.45
2022-12-20T01:47:59.992Z,-0.52
2022-12-20T01:53:04.434Z,-0.55
2022-12-20T01:58:12.392Z,-0.49
2022-12-20T02:03:15.312Z,-0.55
2022-12-20T02:08:20.281Z,-0.53
2022-12-20T02:14:00.234Z,-0.54
2022-12-20T02:19:11.227Z,-0.58
2022-12-20T02:24:51.714Z,-0.51
2022-12-20T02:30:16.645Z,-0.45
2022-12-20T02:35:26.180Z,-0.49
2022-12-20T02:40:34.968Z,-0.43
2022-12-20T02:45:37.805Z,-0.46
2022-12-20T02:50:46.912Z,-0.41
2022-12-20T02:55:57.347Z,-0.45
2022-12-20T03:01:04.618Z,-0.47
2022-12-20T03:06:06.988Z,-0.45
2022-12-20T03:11:08.905Z,-0.42
2022-12-20T03:16:10.993Z,-0.43
2022-12-20T03:21:13.713Z,-0.37
2022-12-20T03:26:15.551Z,-0.30
2022-12-20T03:31:22.666Z,-0.29
2022-12-20T03:36:28.709Z,-0.28
2022-12-20T03:41:34.146Z,-0.31
2022-12-20T03:46:36.251Z,-0.25
2022-12-20T03:51:39.656Z,-0.28
2022-12-20T03:56:41.526Z,-0.36
2022-12-20T04:01:43.550Z,-0.35
2022-12-20T04:06:45.380Z,-0.34
2022-12-20T04:11:47.360Z,-0.39
2022-12-20T04:16:50.380Z,-0.32
2022-12-20T04:22:00.831Z,-0.29
2022-12-20T04:27:16.875Z,-0.27
2022-12-20T04:32:18.726Z,-0.25
2022-12-20T04:37:20.843Z,-0.29
2022-12-20T04:42:28.054Z,-0.25
2022-12-20T04:47:31.225Z,-0.24
2022-12-20T04:52:51.611Z,-0.24
2022-12-20T04:57:53.636Z,-0.29
2022-12-20T05:02:55.622Z,-0.27
2022-12-20T05:08:00.372Z,-0.28
2022-12-20T05:13:09.241Z,-0.26
2022-12-20T05:18:15.653Z,-0.25
2022-12-20T05:23:43.333Z,-0.33
2022-12-20T05:28:51.994Z,-0.32
2022-12-20T05:33:54.299Z,-0.32
2022-12-20T05:39:04.345Z,-0.29
2022-12-20T05:44:08.151Z,-0.34
2022-12-20T05:49:12.995Z,-0.33
2022-12-20T05:54:14.719Z,-0.31
2022-12-20T05:59:21.883Z,-0.37
2022-12-20T06:04:23.676Z,-0.30
2022-12-20T06:09:26.477Z,-0.31
2022-12-20T06:14:37.124Z,-0.33
2022-12-20T06:19:41.555Z,-0.29
2022-12-20T06:24:48.674Z,-0.27
2022-12-20T06:29:54.519Z,-0.29
2022-12-20T06:35:00.821Z,-0.29
2022-12-20T06:40:04.525Z,-0.32
2022-12-20T06:45:07.311Z,-0.29
2022-12-20T06:50:09.275Z,-0.24
2022-12-20T06:55:11.178Z,-0.26
2022-12-20T07:00:15.915Z,-0.28
2022-12-20T07:05:17.769Z,-0.27
2022-12-20T07:10:19.384Z,-0.23
2022-12-20T07:15:22.205Z,-0.23
2022-12-20T07:20:23.896Z,-0.22
2022-12-20T07:25:25.624Z,-0.26
2022-12-20T07:30:27.670Z,-0.23
2022-12-20T07:35:29.351Z,-0.21
2022-12-20T07:40:30.981Z,-0.18
2022-12-20T07:45:32.701Z,-0.23
2022-12-20T07:50:36.032Z,-0.22
2022-12-20T07:55:40.411Z,-0.21
2022-12-20T08:00:42.790Z,-0.19
2022-12-20T08:05:48.592Z,-0.19
2022-12-20T08:10:50.857Z,-0.14
2022-12-20T08:15:52.495Z,-0.09
2022-12-20T08:20:54.126Z,-0.11
2022-12-20T08:25:55.832Z,-0.06
2022-12-20T08:31:05.735Z,-0.10
2022-12-20T08:36:11.260Z,-0.07
2022-12-20T08:41:16.547Z,-0.09
2022-12-20T08:46:18.166Z,-0.08
2022-12-20T08:51:19.960Z,-0.05
2022-12-20T08:56:22.259Z,0.01
2022-12-20T09:01:24.009Z,0.00
2022-12-20T09:06:25.970Z,0.01
2022-12-20T09:11:28.446Z,0.07
2022-12-20T09:16:32.472Z,0.04
2022-12-20T09:21:35.006Z,0.06
2022-12-20T09:26:36.967Z,0.01
2022-12-20T09:31:38.610Z,0.06
2022-12-20T09:36:40.462Z,0.16
2022-12-20T09:41:44.162Z,0.17
2022-12-20T09:46:55.370Z,0.16
2022-12-20T09:52:11.866Z,0.13
2022-12-20T09:57:13.463Z,0.13
2022-12-20T10:02:54.306Z,0.16
2022-12-20T10:08:11.369Z,0.10
2022-12-20T10:13:15.974Z,0.19
2022-12-20T10:18:46.395Z,0.28
2022-12-20T10:24:03.400Z,0.24
2022-12-20T10:29:05.114Z,0.20
2022-12-20T10:34:07.910Z,0.27
2022-12-20T10:39:10.216Z,0.29
2022-12-20T10:44:15.499Z,0.31
2022-12-20T10:49:31.621Z,0.21
2022-12-20T10:54:37.347Z,0.24
2022-12-20T10:59:44.116Z,0.19
2022-12-20T11:05:06.305Z,0.21
2022-12-20T11:10:23.933Z,0.23
2022-12-20T11:15:34.266Z,0.25
2022-12-20T11:20:58.731Z,0.24
2022-12-20T11:26:32.836Z,0.29
2022-12-20T11:32:23.229Z,0.18
2022-12-20T11:37:27.112Z,0.22
2022-12-20T11:42:50.173Z,0.24
2022-12-20T11:47:57.522Z,0.22
2022-12-20T11:53:05.474Z,0.27
2022-12-20T11:58:26.323Z,0.33
2022-12-20T12:03:33.490Z,0.20
2022-12-20T12:08:50.159Z,0.24
2022-12-20T12:13:52.201Z,0.23
2022-12-20T12:18:54.626Z,0.32
2022-12-20T12:24:02.299Z,0.31
2022-12-20T12:29:12.918Z,0.26
2022-12-20T12:34:37.087Z,0.24
2022-12-20T12:40:18.056Z,0.26
2022-12-20T12:45:38.816Z,0.34
2022-12-20T12:50:48.947Z,0.40
2022-12-20T12:56:02.384Z,0.39
2022-12-20T13:01:47.570Z,0.42
2022-12-20T13:06:49.205Z,0.40
2022-12-20T13:12:00.990Z,0.42
2022-12-20T13:17:13.192Z,0.38
2022-12-20T13:22:17.008Z,0.37
2022-12-20T13:27:23.762Z,0.35
2022-12-20T13:32:47.382Z,0.40
2022-12-20T13:38:25.547Z,0.36
2022-12-20T13:43:32.746Z,0.32
2022-12-20T13:48:46.625Z,0.38
2022-12-20T13:53:57.684Z,0.28
2022-12-20T13:59:07.517Z,0.28
2022-12-20T14:04:11.084Z,0.25
2022-12-20T14:09:39.469Z,0.19
2022-12-20T14:14:46.266Z,0.22
2022-12-20T14:19:47.942Z,0.20
2022-12-20T14:24:49.838Z,0.25
2022-12-20T14:29:52.115Z,0.21
2022-12-20T14:34:54.117Z,0.24
2022-12-20T14:40:10.192Z,0.25
2022-12-20T14:45:14.580Z,0.28
2022-12-20T14:50:41.151Z,0.26
2022-12-20T14:55:46.411Z,0.26
2022-12-20T15:01:04.173Z,0.16
2022-12-20T15:06:27.201Z,0.21
2022-12-20T15:11:28.921Z,0.17
2022-12-20T15:16:30.990Z,0.17
2022-12-20T15:21:40.990Z,0.13
2022-12-20T15:26:42.988Z,0.12
2022-12-20T15:31:46.628Z,0.13
2022-12-20T15:36:48.506Z,0.20
2022-12-20T15:41:50.495Z,0.21
2022-12-20T15:46:52.853Z,0.13
2022-12-20T15:51:55.383Z,0.17
2022-12-20T15:57:00.252Z,0.22
2022-12-20T16:02:02.813Z,0.23
2022-12-20T16:07:12.146Z,0.23
2022-12-20T16:12:18.496Z,0.30
2022-12-20T16:17:20.144Z,0.18
2022-12-20T16:22:23.484Z,0.25
2022-12-20T16:27:25.092Z,0.28
2022-12-20T16:32:26.937Z,0.22
2022-12-20T16:37:28.525Z,0.12
2022-12-20T16:42:30.387Z,0.15
2022-12-20T16:47:32.070Z,0.11
2022-12-20T16:52:37.277Z,0.15
2022-12-20T16:57:38.940Z,0.15
2022-12-20T17:02:40.652Z,0.11
2022-12-20T17:07:42.326Z,0.09
2022-12-20T17:12:45.131Z,0.14
2022-12-20T17:17:47.152Z,0.15
2022-12-20T17:22:51.109Z,0.20
2022-12-20T17:27:53.675Z,0.23
2022-12-20T17:32:55.531Z,0.23
2022-12-20T17:37:58.062Z,0.21
2022-12-20T17:42:59.753Z,0.19
2022-12-20T17:48:01.734Z,0.21
2022-12-20T17:53:04.144Z,0.24
2022-12-20T17:58:05.850Z,0.25
2022-12-20T18:03:20.066Z,0.28
2022-12-20T18:08:31.589Z,0.28
2022-12-20T18:13:33.477Z,0.26
2022-12-20T18:18:37.137Z,0.22
2022-12-20T18:23:39.226Z,0.19
2022-12-20T18:28:43.481Z,0.24
2022-12-20T18:33:46.041Z,0.23
2022-12-20T18:38:51.134Z,0.17
2022-12-20T18:43:56.345Z,0.21
2022-12-20T18:49:00.392Z,0.18
2022-12-20T18:54:02.639Z,0.20
2022-12-20T18:59:11.491Z,0.22
2022-12-20T19:04:15.915Z,0.20
2022-12-20T19:09:19.682Z,0.20
2022-12-20T19:14:21.301Z,0.19
2022-12-20T19:19:22.948Z,0.22
2022-12-20T19:24:24.749Z,0.24
2022-12-20T19:29:27.526Z,0.28
2022-12-20T19:34:29.200Z,0.23
2022-12-20T19:39:30.984Z,0.22
2022-12-20T19:44:33.936Z,0.24
2022-12-20T19:49:36.189Z,0.27
2022-12-20T19:54:39.797Z,0.26
2022-12-20T19:59:41.660Z,0.26
2022-12-20T20:04:43.273Z,0.25
2022-12-20T20:09:44.909Z,0.26
2022-12-20T20:14:46.572Z,0.14
2022-12-20T20:19:48.721Z,0.21
2022-12-20T20:24:50.800Z,0.25
2022-12-20T20:29:52.469Z,0.26
2022-12-20T20:34:54.310Z,0.20
2022-12-20T20:39:55.918Z,0.24
2022-12-20T20:44:57.553Z,0.25
2022-12-20T20:49:59.593Z,0.24
2022-12-20T20:55:01.285Z,0.27
2022-12-20T21:00:04.376Z,0.31
2022-12-20T21:10:28.012Z,0.32
2022-12-20T21:15:29.986Z,0.29
2022-12-20T21:20:31.604Z,0.35
2022-12-20T21:25:33.584Z,0.34
2022-12-20T21:30:35.853Z,0.28
2022-12-20T21:35:37.655Z,0.24
2022-12-20T21:40:39.302Z,0.29
2022-12-20T21:45:40.919Z,0.30
2022-12-20T21:50:42.523Z,0.26
2022-12-20T21:55:44.144Z,0.31
2022-12-20T22:00:49.531Z,0.26
2022-12-20T22:05:57.972Z,0.29
2022-12-20T22:11:05.738Z,0.21
2022-12-20T22:16:08.247Z,0.19
2022-12-20T22:21:14.656Z,0.27
2022-12-20T22:26:19.132Z,0.28
2022-12-20T22:31:21.451Z,0.29
2022-12-20T22:36:23.928Z,0.26
2022-12-20T22:41:28.932Z,0.29
2022-12-20T22:46:31.139Z,0.27
2022-12-20T22:51:33.625Z,0.32
2022-12-20T22:56:35.930Z,0.26
2022-12-20T23:01:37.851Z,0.26
2022-12-20T23:06:39.656Z,0.24
2022-12-20T23:12:00.117Z,0.26
2022-12-20T23:17:02.449Z,0.31
2022-12-20T23:22:22.542Z,0.32
2022-12-20T23:27:24.967Z,0.25
2022-12-20T23:32:27.078Z,0.31
2022-12-20T23:37:29.479Z,0.26
2022-12-20T23:42:31.116Z,0.28
2022-12-20T23:47:33.120Z,0.26
2022-12-20T23:52:34.796Z,0.25
2022-12-20T23:57:36.526Z,0.32
